^^
Saratoga-Weather Station Historical Data
Daily Summary for May 12, 2021 Units:  English    Metric   Both
Daily Weekly Monthly Yearly Custom
  High: Low: Average:
Temperature: 63.9 °F 48.2 °F 55.2 °F
Dew Point: 50 °F 42.1 °F 46 °F
Humidity: 93% 46% 74%
Wind Speed: 11mph 0mph 2.5mph
Wind Gust: 12mph - -
Wind- - West
Pressure: 29.9 in 29.8 in -
Precipitation: 0 in    
Historical Graphs
 
 
Tabular Data for May 12, 2021
Time Temperature Dew Point Pressure Wind Wind Speed Wind Gust Humidity Rainfall Rate (Hourly) solar
00:03 51.6 °F 49.5 °F 29.9 in NW 2.9 mph 10 mph 92% 0 in 0 W/m2
00:08 51.6 °F 49.5 °F 29.9 in West 4 mph 10 mph 92% 0 in 0 W/m2
00:13 51.6 °F 49.5 °F 29.9 in SW 4.9 mph 11 mph 92% 0 in 0 W/m2
00:18 51.6 °F 49.5 °F 29.9 in WSW 4 mph 9 mph 92% 0 in 0 W/m2
00:23 51.6 °F 49.5 °F 29.9 in West 2 mph 7 mph 92% 0 in 0 W/m2
00:28 51.6 °F 49.5 °F 29.9 in WNW 6.9 mph 10 mph 92% 0 in 0 W/m2
00:33 51.6 °F 49.5 °F 29.9 in West 6 mph 9 mph 92% 0 in 0 W/m2
00:38 51.6 °F 49.6 °F 29.9 in NW 0.9 mph 9 mph 93% 0 in 0 W/m2
00:43 51.6 °F 49.6 °F 29.9 in WNW 4.9 mph 8 mph 93% 0 in 0 W/m2
00:48 51.6 °F 49.6 °F 29.9 in WNW 6.9 mph 9 mph 93% 0 in 0 W/m2
00:53 51.4 °F 49.5 °F 29.9 in West 8.1 mph 10 mph 93% 0 in 0 W/m2
00:58 51.4 °F 49.5 °F 29.9 in WNW 2 mph 10 mph 93% 0 in 0 W/m2
01:03 51.4 °F 49.3 °F 29.9 in WNW 6.9 mph 9 mph 92% 0 in 0 W/m2
01:08 51.4 °F 49.3 °F 29.9 in WSW 4 mph 8 mph 92% 0 in 0 W/m2
01:23 51.3 °F 48.7 °F 29.9 in WNW 2.9 mph 10 mph 91% 0 in 0 W/m2
01:28 51.3 °F 49.1 °F 29.9 in WNW 8.1 mph 9 mph 92% 0 in 0 W/m2
02:18 50.5 °F 48 °F 29.9 in NW 2 mph 3 mph 91% 0 in 0 W/m2
02:23 50.5 °F 48 °F 29.9 in WNW 2.9 mph 6 mph 91% 0 in 0 W/m2
02:28 50.5 °F 48 °F 29.9 in West 4 mph 4 mph 91% 0 in 0 W/m2
02:33 50.5 °F 48.4 °F 29.9 in WSW 2.9 mph 6 mph 92% 0 in 0 W/m2
02:38 50.5 °F 48.4 °F 29.9 in WNW 2.9 mph 7 mph 92% 0 in 0 W/m2
02:43 50.5 °F 48.4 °F 29.9 in West 4 mph 9 mph 92% 0 in 0 W/m2
02:48 50.5 °F 48.4 °F 29.9 in WNW 2.9 mph 3 mph 92% 0 in 0 W/m2
02:53 50.5 °F 48.4 °F 29.9 in WNW 4 mph 7 mph 92% 0 in 0 W/m2
02:58 50.5 °F 48.4 °F 29.9 in WSW 4 mph 6 mph 92% 0 in 0 W/m2
03:03 50.5 °F 48.4 °F 29.9 in WNW 2.9 mph 8 mph 92% 0 in 0 W/m2
03:08 50.5 °F 48.4 °F 29.9 in West 4 mph 7 mph 92% 0 in 0 W/m2
03:13 50.5 °F 48.4 °F 29.9 in West 4 mph 4 mph 92% 0 in 0 W/m2
03:18 50.5 °F 48.4 °F 29.9 in NW 2 mph 8 mph 92% 0 in 0 W/m2
03:23 50.5 °F 48.4 °F 29.9 in WNW 2 mph 8 mph 92% 0 in 0 W/m2
03:28 50.5 °F 48.4 °F 29.9 in NW 4.9 mph 8 mph 92% 0 in 0 W/m2
03:33 50.5 °F 48 °F 29.9 in WNW 2 mph 4 mph 91% 0 in 0 W/m2
03:38 50.5 °F 48 °F 29.9 in Calm   8 mph 91% 0 in 0 W/m2
03:43 50.4 °F 47.8 °F 29.9 in WSW 2.9 mph 5 mph 91% 0 in 0 W/m2
03:48 50.4 °F 47.8 °F 29.9 in Calm   6 mph 91% 0 in 0 W/m2
03:53 50.4 °F 48.2 °F 29.9 in West 2 mph 2 mph 92% 0 in 0 W/m2
03:58 50.4 °F 48.2 °F 29.9 in West 2 mph 4 mph 92% 0 in 0 W/m2
04:03 50.4 °F 48.2 °F 29.9 in WNW 2 mph 2 mph 92% 0 in 0 W/m2
04:08 50.4 °F 48.2 °F 29.9 in Calm   2 mph 92% 0 in 0 W/m2
04:13 50.4 °F 48.2 °F 29.9 in Calm   2 mph 92% 0 in 0 W/m2
04:18 50.4 °F 48.2 °F 29.9 in West 2 mph 6 mph 92% 0 in 0 W/m2
04:23 50.2 °F 48 °F 29.9 in West 2 mph 4 mph 92% 0 in 0 W/m2
04:28 50.2 °F 48 °F 29.9 in West 2 mph 5 mph 92% 0 in 0 W/m2
04:33 50.2 °F 48 °F 29.9 in SW 4 mph 5 mph 92% 0 in 0 W/m2
04:38 50.2 °F 48 °F 29.9 in WNW 0.9 mph 3 mph 92% 0 in 0 W/m2
04:43 50 °F 47.8 °F 29.9 in West 2 mph 8 mph 92% 0 in 0 W/m2
04:48 50 °F 47.5 °F 29.9 in West 2 mph 3 mph 91% 0 in 0 W/m2
04:53 50 °F 47.5 °F 29.9 in West 2.9 mph 8 mph 91% 0 in 0 W/m2
04:58 49.8 °F 47.3 °F 29.9 in WSW 2.9 mph 9 mph 91% 0 in 0 W/m2
05:03 49.8 °F 47.3 °F 29.9 in West 6 mph 7 mph 91% 0 in 0 W/m2
05:08 49.8 °F 47.3 °F 29.9 in West 2.9 mph 7 mph 91% 0 in 0 W/m2
05:13 49.8 °F 47.3 °F 29.9 in WSW 2.9 mph 8 mph 91% 0 in 0 W/m2
05:18 49.8 °F 47.3 °F 29.9 in West 2 mph 4 mph 91% 0 in 0 W/m2
05:23 49.8 °F 47.3 °F 29.9 in West 6 mph 8 mph 91% 0 in 0 W/m2
05:29 49.6 °F 47.1 °F 29.9 in WNW 2.9 mph 5 mph 91% 0 in 0 W/m2
05:34 49.6 °F 47.1 °F 29.9 in West 4 mph 8 mph 91% 0 in 0 W/m2
05:39 49.6 °F 47.1 °F 29.9 in WSW 4.9 mph 10 mph 91% 0 in 0 W/m2
05:44 49.6 °F 47.1 °F 29.9 in West 2 mph 4 mph 91% 0 in 0 W/m2
05:49 49.6 °F 47.1 °F 29.9 in West 2.9 mph 10 mph 91% 0 in 0 W/m2
05:54 49.5 °F 46.9 °F 29.9 in West 0.9 mph 9 mph 91% 0 in 0 W/m2
05:59 49.5 °F 46.9 °F 29.9 in West 2.9 mph 6 mph 91% 0 in 0 W/m2
06:04 49.5 °F 46.9 °F 29.9 in WSW 2 mph 9 mph 91% 0 in 0 W/m2
06:09 49.5 °F 46.9 °F 29.9 in West 2 mph 4 mph 91% 0 in 0 W/m2
06:14 49.5 °F 46.9 °F 29.9 in West 2 mph 6 mph 91% 0 in 5 W/m2
06:19 49.5 °F 46.9 °F 29.9 in WNW 2.9 mph 4 mph 91% 0 in 7 W/m2
06:24 49.5 °F 46.9 °F 29.9 in Calm   3 mph 91% 0 in 9 W/m2
06:29 49.5 °F 46.9 °F 29.9 in West 0.9 mph 4 mph 91% 0 in 14 W/m2
06:34 49.5 °F 46.9 °F 29.9 in WNW 0.9 mph 3 mph 91% 0 in 16 W/m2
06:39 49.3 °F 46.8 °F 29.9 in NW 0.9 mph 4 mph 91% 0 in 16 W/m2
06:44 49.3 °F 46.8 °F 29.9 in West 2 mph 3 mph 91% 0 in 19 W/m2
06:49 49.3 °F 46.8 °F 29.9 in West 2.9 mph 7 mph 91% 0 in 18 W/m2
06:54 49.1 °F 46.6 °F 29.9 in WNW 2.9 mph 6 mph 91% 0 in 14 W/m2
06:59 48.9 °F 46.4 °F 29.9 in WNW 2 mph 7 mph 91% 0 in 18 W/m2
07:04 48.7 °F 46.2 °F 29.9 in NW 2 mph 6 mph 91% 0 in 21 W/m2
07:09 48.7 °F 46.2 °F 29.9 in West 4 mph 6 mph 91% 0 in 53 W/m2
07:14 48.7 °F 46.2 °F 29.9 in WNW 4.9 mph 7 mph 91% 0 in 54 W/m2
07:19 48.7 °F 46.6 °F 29.9 in WNW 2 mph 7 mph 92% 0 in 47 W/m2
07:24 48.9 °F 46.8 °F 29.9 in WNW 6.9 mph 8 mph 92% 0 in 76 W/m2
07:29 49.3 °F 46.8 °F 29.9 in West 6 mph 10 mph 91% 0 in 77 W/m2
07:34 49.3 °F 46.8 °F 29.9 in NW 4 mph 8 mph 91% 0 in 97 W/m2
07:39 49.5 °F 46.6 °F 29.9 in WSW 4 mph 8 mph 90% 0 in 105 W/m2
07:44 49.5 °F 46.6 °F 29.9 in WNW 2.9 mph 8 mph 90% 0 in 121 W/m2
07:49 49.5 °F 46.6 °F 29.9 in NW 2.9 mph 7 mph 90% 0 in 118 W/m2
07:54 49.6 °F 46.8 °F 29.9 in West 6.9 mph 10 mph 90% 0 in 120 W/m2
07:59 49.5 °F 46.6 °F 29.9 in NW 2 mph 11 mph 90% 0 in 130 W/m2
08:04 49.5 °F 46.6 °F 29.9 in WNW 4.9 mph 6 mph 90% 0 in 135 W/m2
08:09 49.6 °F 46.8 °F 29.9 in South 4.9 mph 11 mph 90% 0 in 120 W/m2
08:14 49.6 °F 46.6 °F 29.9 in WSW 2 mph 6 mph 89% 0 in 104 W/m2
08:19 49.6 °F 46.6 °F 29.9 in WNW 4 mph 10 mph 89% 0 in 105 W/m2
08:24 49.5 °F 46.4 °F 29.9 in NW 4 mph 9 mph 89% 0 in 98 W/m2
08:29 49.5 °F 46 °F 29.9 in WNW 2.9 mph 9 mph 88% 0 in 93 W/m2
08:34 49.6 °F 46.2 °F 29.9 in WSW 2 mph 8 mph 88% 0 in 76 W/m2
08:39 49.8 °F 46.8 °F 29.9 in WNW 2 mph 7 mph 89% 0 in 74 W/m2
08:44 50.4 °F 46.6 °F 29.9 in WNW 8.9 mph 9 mph 87% 0 in 100 W/m2
08:49 50.5 °F 46.8 °F 29.9 in WNW 4 mph 9 mph 87% 0 in 272 W/m2
08:54 50.7 °F 46.9 °F 29.9 in West 2 mph 3 mph 87% 0 in 141 W/m2
08:59 51.1 °F 47.1 °F 29.9 in WSW 4.9 mph 7 mph 86% 0 in 134 W/m2
09:04 50.9 °F 46.9 °F 29.9 in Calm   5 mph 86% 0 in 181 W/m2
09:09 50.9 °F 47.1 °F 29.9 in Calm   7 mph 87% 0 in 118 W/m2
09:14 51.1 °F 47.3 °F 29.9 in NNE 2 mph 2 mph 87% 0 in 102 W/m2
09:19 51.3 °F 47.5 °F 29.9 in NE 0.9 mph 1 mph 87% 0 in 148 W/m2
09:24 51.4 °F 47.7 °F 29.9 in Calm   6 mph 87% 0 in 107 W/m2
09:29 51.3 °F 47.3 °F 29.9 in WSW 4 mph 4 mph 86% 0 in 139 W/m2
09:34 51.3 °F 46.9 °F 29.9 in West 0.9 mph 2 mph 85% 0 in 211 W/m2
09:39 51.4 °F 47.5 °F 29.9 in WNW 2 mph 6 mph 86% 0 in 146 W/m2
09:44 51.3 °F 47.3 °F 29.9 in WNW 2.9 mph 5 mph 86% 0 in 197 W/m2
09:49 51.3 °F 47.3 °F 29.9 in West 2.9 mph 8 mph 86% 0 in 253 W/m2
09:54 51.4 °F 47.5 °F 29.9 in NW 4 mph 4 mph 86% 0 in 733 W/m2
09:59 52.2 °F 47.5 °F 29.9 in WSW 2 mph 8 mph 84% 0 in 401 W/m2
10:04 52.3 °F 47.7 °F 29.9 in WSW 2 mph 7 mph 84% 0 in 255 W/m2
10:09 52.3 °F 47.7 °F 29.9 in NW 2 mph 3 mph 84% 0 in 364 W/m2
10:14 52.3 °F 47.7 °F 29.9 in WNW 4 mph 7 mph 84% 0 in 366 W/m2
10:19 52.5 °F 47.8 °F 29.9 in West 2.9 mph 6 mph 84% 0 in 255 W/m2
10:24 52.5 °F 47.5 °F 29.9 in WSW 0.9 mph 5 mph 83% 0 in 197 W/m2
10:29 52.7 °F 47.7 °F 29.9 in NE 2 mph 2 mph 83% 0 in 677 W/m2
10:34 53.1 °F 47.7 °F 29.9 in SW 0.9 mph 6 mph 82% 0 in 733 W/m2
10:39 53.4 °F 47.7 °F 29.9 in West 2.9 mph 6 mph 81% 0 in 304 W/m2
10:44 53.6 °F 47.8 °F 29.9 in WNW 4.9 mph 9 mph 81% 0 in 357 W/m2
10:49 54 °F 48 °F 29.9 in Calm   5 mph 80% 0 in 214 W/m2
10:54 54 °F 47.3 °F 29.9 in West 0.9 mph 8 mph 78% 0 in 211 W/m2
10:59 54 °F 47.7 °F 29.9 in West 4 mph 6 mph 79% 0 in 227 W/m2
11:04 54 °F 47.7 °F 29.9 in NW 2 mph 8 mph 79% 0 in 341 W/m2
11:09 53.8 °F 46.8 °F 29.9 in WSW 2.9 mph 6 mph 77% 0 in 278 W/m2
11:14 53.8 °F 47.1 °F 29.9 in WSW 2 mph 8 mph 78% 0 in 323 W/m2
11:19 54.1 °F 47.8 °F 29.9 in WNW 0.9 mph 6 mph 79% 0 in 926 W/m2
11:24 54.9 °F 48.2 °F 29.9 in WSW 6 mph 7 mph 78% 0 in 410 W/m2
11:29 55.2 °F 47.8 °F 29.9 in WSW 0.9 mph 5 mph 76% 0 in 1048 W/m2
11:34 55.8 °F 48.4 °F 29.9 in West 2.9 mph 3 mph 76% 0 in 988 W/m2
11:39 56.1 °F 48 °F 29.9 in WNW 10.1 mph 11 mph 74% 0 in 1041 W/m2
11:44 56.7 °F 49.1 °F 29.9 in NE 2 mph 4 mph 76% 0 in 1034 W/m2
11:49 57.2 °F 48.6 °F 29.9 in WNW 2.9 mph 11 mph 73% 0 in 740 W/m2
11:54 57.7 °F 48.7 °F 29.9 in West 8.1 mph 8 mph 72% 0 in 506 W/m2
11:59 57.7 °F 48 °F 29.9 in West 6.9 mph 9 mph 70% 0 in 204 W/m2
12:04 56.8 °F 47.1 °F 29.9 in WNW 2.9 mph 7 mph 70% 0 in 257 W/m2
12:09 56.3 °F 46.2 °F 29.9 in NNE 0.9 mph 3 mph 69% 0 in 322 W/m2
12:14 56.1 °F 46.8 °F 29.9 in WNW 2.9 mph 6 mph 71% 0 in 309 W/m2
12:19 56.3 °F 46.9 °F 29.9 in NW 9 mph 9 mph 71% 0 in 355 W/m2
12:24 56.1 °F 46.8 °F 29.9 in WNW 2 mph 6 mph 71% 0 in 548 W/m2
12:29 56.3 °F 46.9 °F 29.9 in West 2 mph 4 mph 71% 0 in 749 W/m2
12:34 56.8 °F 46.8 °F 29.9 in West 6 mph 10 mph 69% 0 in 786 W/m2
12:39 57 °F 47.7 °F 29.9 in WNW 4 mph 7 mph 71% 0 in 506 W/m2
12:45 57 °F 47.7 °F 29.9 in WSW 4 mph 8 mph 71% 0 in 529 W/m2
12:50 57.6 °F 48.2 °F 29.9 in NW 2.9 mph 8 mph 71% 0 in 1165 W/m2
12:55 58.5 °F 48.7 °F 29.9 in WNW 2 mph 5 mph 70% 0 in 993 W/m2
13:00 59.4 °F 50 °F 29.9 in SW 2.9 mph 8 mph 71% 0 in 1039 W/m2
13:05 59.9 °F 48.9 °F 29.9 in West 2 mph 7 mph 67% 0 in 1039 W/m2
13:10 59.2 °F 46.2 °F 29.9 in SE 0.9 mph 8 mph 62% 0 in 236 W/m2
13:15 58.6 °F 46.6 °F 29.9 in West 2.9 mph 7 mph 64% 0 in 279 W/m2
13:20 58.3 °F 46.2 °F 29.9 in WNW 2 mph 6 mph 64% 0 in 1037 W/m2
13:25 58.6 °F 46 °F 29.9 in WSW 4.9 mph 7 mph 63% 0 in 1053 W/m2
13:30 59.4 °F 46.8 °F 29.9 in ENE 0.9 mph 3 mph 63% 0 in 1039 W/m2
13:35 59.7 °F 45.9 °F 29.9 in West 6 mph 9 mph 60% 0 in 821 W/m2
13:40 59.5 °F 46 °F 29.9 in WNW 11 mph 11 mph 61% 0 in 385 W/m2
13:45 59.5 °F 44.8 °F 29.9 in WSW 4.9 mph 8 mph 58% 0 in 1076 W/m2
13:50 59.7 °F 47.1 °F 29.9 in NW 0.9 mph 10 mph 63% 0 in 1071 W/m2
13:55 60.3 °F 45.9 °F 29.9 in West 2 mph 7 mph 59% 0 in 1074 W/m2
14:00 60.8 °F 46.4 °F 29.9 in WNW 2.9 mph 12 mph 59% 0 in 1090 W/m2
14:05 61 °F 46.6 °F 29.9 in WNW 4 mph 8 mph 59% 0 in 969 W/m2
14:10 61 °F 46.9 °F 29.9 in West 10.1 mph 12 mph 60% 0 in 802 W/m2
14:15 60.6 °F 46.2 °F 29.9 in West 6 mph 9 mph 59% 0 in 742 W/m2
14:20 60.6 °F 45.3 °F 29.8 in WNW 4.9 mph 6 mph 57% 0 in 765 W/m2
14:25 60.4 °F 45.1 °F 29.9 in WSW 2 mph 11 mph 57% 0 in 705 W/m2
14:30 60.3 °F 45 °F 29.8 in West 2 mph 5 mph 57% 0 in 707 W/m2
14:35 60.6 °F 45.7 °F 29.9 in WNW 6.9 mph 11 mph 58% 0 in 947 W/m2
14:40 60.6 °F 45.3 °F 29.9 in NW 4.9 mph 8 mph 57% 0 in 928 W/m2
14:45 61 °F 45.1 °F 29.8 in NNW 0.9 mph 6 mph 56% 0 in 933 W/m2
14:50 61.2 °F 43.9 °F 29.8 in West 0.9 mph 6 mph 53% 0 in 1011 W/m2
14:55 61.2 °F 43.9 °F 29.8 in WNW 2.9 mph 7 mph 53% 0 in 251 W/m2
15:00 61.5 °F 44.8 °F 29.8 in WSW 4.9 mph 8 mph 54% 0 in 1060 W/m2
15:05 61.7 °F 44.4 °F 29.8 in ESE 2.9 mph 7 mph 53% 0 in 1004 W/m2
15:10 61.3 °F 42.6 °F 29.8 in WNW 2.9 mph 8 mph 50% 0 in 174 W/m2
15:15 61 °F 43.7 °F 29.8 in East 4 mph 7 mph 53% 0 in 954 W/m2
15:20 61.2 °F 43.9 °F 29.8 in East 0.9 mph 4 mph 53% 0 in 200 W/m2
15:25 61.3 °F 42.6 °F 29.8 in West 2.9 mph 7 mph 50% 0 in 148 W/m2
15:30 61.2 °F 43 °F 29.8 in WNW 4 mph 9 mph 51% 0 in 158 W/m2
15:35 61 °F 42.8 °F 29.8 in WNW 0.9 mph 5 mph 51% 0 in 287 W/m2
15:40 61.3 °F 42.1 °F 29.8 in ESE 2 mph 2 mph 49% 0 in 976 W/m2
15:45 61.7 °F 43.3 °F 29.8 in WSW 4.9 mph 5 mph 51% 0 in 216 W/m2
15:50 62.2 °F 43.9 °F 29.8 in West 6.9 mph 9 mph 51% 0 in 951 W/m2
15:55 62.2 °F 43.3 °F 29.8 in WNW 4 mph 7 mph 50% 0 in 199 W/m2
16:00 62.1 °F 44.2 °F 29.8 in West 2.9 mph 4 mph 52% 0 in 949 W/m2
16:05 62.8 °F 45.3 °F 29.8 in WNW 0.9 mph 7 mph 53% 0 in 970 W/m2
16:10 63.1 °F 43.7 °F 29.8 in WSW 6.9 mph 11 mph 49% 0 in 306 W/m2
16:15 63 °F 44.1 °F 29.8 in WNW 4 mph 6 mph 50% 0 in 983 W/m2
16:20 63 °F 43.5 °F 29.8 in WSW 2 mph 11 mph 49% 0 in 802 W/m2
16:25 63.1 °F 44.8 °F 29.8 in WNW 0.9 mph 3 mph 51% 0 in 809 W/m2
16:30 63.7 °F 43.2 °F 29.8 in ESE 4 mph 6 mph 47% 0 in 141 W/m2
16:35 63.3 °F 42.3 °F 29.8 in WNW 0.9 mph 6 mph 46% 0 in 179 W/m2
16:40 62.8 °F 42.8 °F 29.8 in WNW 0.9 mph 4 mph 48% 0 in 851 W/m2
16:45 62.2 °F 42.8 °F 29.8 in West 2.9 mph 3 mph 49% 0 in 160 W/m2
16:50 61.9 °F 43 °F 29.8 in West 4 mph 8 mph 50% 0 in 190 W/m2
16:55 61.3 °F 42.6 °F 29.8 in Calm   4 mph 50% 0 in 211 W/m2
17:00 61.3 °F 43 °F 29.8 in NNW 7 mph 7 mph 51% 0 in 287 W/m2
17:05 61.9 °F 43.5 °F 29.8 in WNW 0.9 mph 4 mph 51% 0 in 381 W/m2
17:10 62.2 °F 43.9 °F 29.8 in WNW 2 mph 4 mph 51% 0 in 619 W/m2
17:15 62.4 °F 43.5 °F 29.8 in NW 2 mph 4 mph 50% 0 in 239 W/m2
17:20 62.4 °F 44.1 °F 29.8 in WNW 2.9 mph 3 mph 51% 0 in 728 W/m2
17:25 63.1 °F 44.2 °F 29.8 in WNW 4.9 mph 5 mph 50% 0 in 304 W/m2
17:30 63.1 °F 43.7 °F 29.8 in NNE 2 mph 2 mph 49% 0 in 719 W/m2
17:35 63.1 °F 43.7 °F 29.8 in NW 0.9 mph 3 mph 49% 0 in 174 W/m2
17:40 63 °F 44.1 °F 29.8 in WSW 2.9 mph 4 mph 50% 0 in 234 W/m2
17:45 62.8 °F 43.9 °F 29.8 in West 2 mph 5 mph 50% 0 in 230 W/m2
17:50 63 °F 44.1 °F 29.8 in SSW 0.9 mph 5 mph 50% 0 in 654 W/m2
17:55 63.3 °F 44.4 °F 29.8 in ESE 0.9 mph 6 mph 50% 0 in 596 W/m2
18:01 63.7 °F 44.2 °F 29.8 in WNW 4 mph 4 mph 49% 0 in 550 W/m2
18:06 63.9 °F 43.7 °F 29.8 in West 0.9 mph 6 mph 48% 0 in 538 W/m2
18:11 63.9 °F 43.2 °F 29.8 in SSW 2 mph 6 mph 47% 0 in 265 W/m2
18:16 63.3 °F 43.9 °F 29.8 in WNW 2 mph 4 mph 49% 0 in 490 W/m2
18:21 63 °F 43.5 °F 29.8 in West 2 mph 4 mph 49% 0 in 125 W/m2
18:26 62.6 °F 43.2 °F 29.8 in West 4 mph 6 mph 49% 0 in 146 W/m2
18:31 62.2 °F 43.3 °F 29.8 in WNW 2.9 mph 4 mph 50% 0 in 132 W/m2
18:36 61.7 °F 43.3 °F 29.8 in West 2 mph 3 mph 51% 0 in 130 W/m2
18:41 61.5 °F 43.2 °F 29.8 in SW 0.9 mph 5 mph 51% 0 in 111 W/m2
18:46 61.3 °F 43.5 °F 29.8 in West 0.9 mph 4 mph 52% 0 in 146 W/m2
18:51 61.3 °F 43.5 °F 29.8 in WSW 2 mph 5 mph 52% 0 in 128 W/m2
18:56 61.3 °F 43.5 °F 29.8 in West 0.9 mph 4 mph 52% 0 in 338 W/m2
19:01 61.5 °F 44.2 °F 29.8 in West 4 mph 4 mph 53% 0 in 146 W/m2
19:06 61.3 °F 44.6 °F 29.8 in WSW 0.9 mph 3 mph 54% 0 in 193 W/m2
19:11 61.5 °F 44.8 °F 29.8 in Calm   2 mph 54% 0 in 128 W/m2
19:16 61.5 °F 44.2 °F 29.8 in Calm   2 mph 53% 0 in 102 W/m2
19:21 61.5 °F 44.2 °F 29.8 in Calm   2 mph 53% 0 in 102 W/m2
19:26 61.9 °F 44.6 °F 29.8 in West 0.9 mph 3 mph 53% 0 in 281 W/m2
19:31 62.8 °F 44.4 °F 29.8 in WNW 2 mph 2 mph 51% 0 in 200 W/m2
19:36 63.1 °F 43.7 °F 29.8 in WSW 0.9 mph 3 mph 49% 0 in 274 W/m2
19:41 63.3 °F 43.9 °F 29.8 in Calm   1 mph 49% 0 in 243 W/m2
19:46 63.3 °F 44.4 °F 29.8 in West 0.9 mph 2 mph 50% 0 in 206 W/m2
19:51 63.3 °F 43.9 °F 29.8 in Calm   3 mph 49% 0 in 146 W/m2
19:56 63.3 °F 44.4 °F 29.8 in WSW 0.9 mph 2 mph 50% 0 in 118 W/m2
20:01 63.3 °F 43.3 °F 29.8 in Calm   3 mph 48% 0 in 53 W/m2
20:06 63 °F 43.5 °F 29.8 in WNW 2 mph 2 mph 49% 0 in 88 W/m2
20:11 62.8 °F 44.4 °F 29.8 in Calm   3 mph 51% 0 in 86 W/m2
20:16 62.4 °F 46 °F 29.8 in Calm     55% 0 in 81 W/m2
20:21 62.4 °F 46.6 °F 29.8 in Calm   2 mph 56% 0 in 69 W/m2
20:26 62.4 °F 46.6 °F 29.8 in Calm   1 mph 56% 0 in 37 W/m2
20:31 62.1 °F 46.6 °F 29.8 in Calm     57% 0 in 33 W/m2
20:36 61.5 °F 46.6 °F 29.8 in Calm   1 mph 58% 0 in 30 W/m2
20:41 61 °F 46 °F 29.8 in Calm     58% 0 in 26 W/m2
20:46 60.4 °F 46 °F 29.8 in Calm     59% 0 in 19 W/m2
20:51 59.7 °F 45.3 °F 29.8 in Calm     59% 0 in 12 W/m2
20:56 59.2 °F 45.3 °F 29.8 in Calm     60% 0 in 7 W/m2
21:01 58.5 °F 45.1 °F 29.8 in Calm     61% 0 in 7 W/m2
21:06 57.9 °F 45 °F 29.8 in Calm     62% 0 in 7 W/m2
21:11 57.4 °F 45 °F 29.8 in Calm     63% 0 in 0 W/m2
21:16 56.8 °F 44.8 °F 29.8 in West 0.9 mph 1 mph 64% 0 in 0 W/m2
21:21 56.3 °F 44.6 °F 29.8 in WSW 0.9 mph 2 mph 65% 0 in 0 W/m2
21:26 55.9 °F 44.4 °F 29.8 in West 0.9 mph 2 mph 65% 0 in 0 W/m2
21:31 55.8 °F 44.2 °F 29.8 in Calm   1 mph 65% 0 in 0 W/m2
21:36 55.6 °F 44.4 °F 29.8 in Calm   1 mph 66% 0 in 0 W/m2
21:41 55.2 °F 44.4 °F 29.8 in Calm   2 mph 67% 0 in 0 W/m2
21:46 55 °F 44.6 °F 29.8 in Calm   1 mph 68% 0 in 0 W/m2
21:51 54.7 °F 44.8 °F 29.8 in West 0.9 mph 2 mph 69% 0 in 0 W/m2
21:56 54.1 °F 44.6 °F 29.8 in West 0.9 mph 2 mph 70% 0 in 0 W/m2
22:01 53.8 °F 44.2 °F 29.8 in Calm     70% 0 in 0 W/m2
22:06 53.4 °F 44.2 °F 29.8 in Calm   2 mph 71% 0 in 0 W/m2
22:11 53.1 °F 44.2 °F 29.8 in Calm     72% 0 in 0 W/m2
22:16 52.9 °F 44.1 °F 29.8 in Calm     72% 0 in 0 W/m2
22:21 52.3 °F 43.5 °F 29.8 in Calm   1 mph 72% 0 in 0 W/m2
22:26 52.2 °F 43.7 °F 29.8 in Calm     73% 0 in 0 W/m2
22:31 51.6 °F 43.5 °F 29.8 in Calm     74% 0 in 0 W/m2
22:37 51.3 °F 43.3 °F 29.8 in Calm     74% 0 in 0 W/m2
22:42 51.1 °F 43.7 °F 29.8 in Calm     76% 0 in 0 W/m2
22:47 50.7 °F 43.5 °F 29.8 in Calm     76% 0 in 0 W/m2
22:52 50.5 °F 43.5 °F 29.8 in Calm     77% 0 in 0 W/m2
22:57 50.4 °F 43.3 °F 29.8 in Calm     77% 0 in 0 W/m2
23:02 50 °F 43.2 °F 29.8 in Calm     77% 0 in 0 W/m2
23:07 49.8 °F 43 °F 29.8 in Calm     77% 0 in 0 W/m2
23:12 49.6 °F 43 °F 29.8 in Calm     78% 0 in 0 W/m2
23:17 49.5 °F 42.8 °F 29.8 in Calm     78% 0 in 0 W/m2
23:22 49.5 °F 42.8 °F 29.8 in West 0.9 mph 1 mph 78% 0 in 0 W/m2
23:27 49.3 °F 42.8 °F 29.8 in Calm     78% 0 in 0 W/m2
23:32 49.3 °F 42.8 °F 29.8 in Calm     78% 0 in 0 W/m2
23:37 48.9 °F 42.4 °F 29.8 in Calm     78% 0 in 0 W/m2
23:42 48.7 °F 42.3 °F 29.8 in Calm     78% 0 in 0 W/m2
23:47 48.6 °F 42.3 °F 29.8 in Calm     79% 0 in 0 W/m2
23:52 48.4 °F 42.3 °F 29.8 in Calm     79% 0 in 0 W/m2
23:57 48.2 °F 42.3 °F 29.8 in Calm   1 mph 80% 0 in 0 W/m2
Juneau County Weather
Compliments of Weather Underground - 4 mb